Airfield :
LOGIN :

Register | Disclaimer

   EN    FR    IT 

 










Legend :    VFR   Marginal VFR   IFR   Intensive IFR   Very Intensive IFR
Visi :
Ceiling :
>= 8 km
>= 3000ft
5 to 8 km
1000 to 3000 ft
1500m to 5 km
500 to 1000 ft
800 to 1500m
200 to 500 ft
< 800m
< 200 ft
Symbols :   Thunderstorms  Fog  Heavy snow  Heavy precipitations  Wind > 20 kt
SIGMETs :     Misc.  Thunderstorms  Icing  Turbulence  Mountain Waves  Volcanic Ashes






- Airport Elevation : 909 ft
- IATA code : KSF


EDVK - Kassel Calden

CURRENT METAR :
  • 021220Z 05007KT 5000 -SN FEW008 BKN014 01/M00 Q1022

EXPIRED METARs :
  • 021150Z 06007KT 3000 -SN BR FEW008 BKN014 01/M00 Q1022
  • 021120Z 06008KT 8000 -SN FEW007 BKN012 01/M00 Q1022
  • 021050Z 06008KT 9000 -SN FEW009 SCT011 BKN013 01/M01 Q1022
  • 021020Z 06007KT 6000 -SN FEW008 OVC011 01/M00 Q1022
  • 020950Z 07007KT 4600 -SN BR FEW009 BKN013 OVC034 00/M01 Q1022

TAF TAF EDVK
Valid from the 02 at 12:00 until the 02 at 21:00 UTC


021100Z 0212/0221 05008KT 7000 FEW006 SCT010 OVC012
TEMPO 0212/0221 3500 -SN BKN005



MET'MAP, your aeronautical weather chart ! - Copyright ORBIFLY December 2007 - Disclaimer

ORBIFLY MET'MAP TEAM :

Programming & Development : Alexandra Zaïnal
Original concept : Baudouin d'Aumeries
Technical & hardware support : Manuel Goepfert
Assistance : Marc-Olivier Méhu




SOURCES & CREDITS :

   NOAA